createdAt,value
2022-08-28T00:00:04.911Z,1019.36
2022-08-28T00:02:01.875Z,1019.36
2022-08-28T00:04:02.378Z,1019.31
2022-08-28T00:06:01.899Z,1019.31
2022-08-28T00:08:02.363Z,1019.38
2022-08-28T00:10:02.082Z,1019.38
2022-08-28T00:12:01.769Z,1019.35
2022-08-28T00:14:01.648Z,1019.35
2022-08-28T00:16:02.392Z,1019.31
2022-08-28T00:18:01.768Z,1019.31
2022-08-28T00:20:01.739Z,1019.41
2022-08-28T00:22:02.503Z,1019.41
2022-08-28T00:24:01.855Z,1019.44
2022-08-28T00:26:01.991Z,1019.44
2022-08-28T00:28:09.241Z,1019.37
2022-08-28T00:30:02.536Z,1019.37
2022-08-28T00:32:02.261Z,1019.43
2022-08-28T00:34:01.649Z,1019.43
2022-08-28T00:36:01.790Z,1019.49
2022-08-28T00:38:02.116Z,1019.49
2022-08-28T00:40:02.752Z,1019.45
2022-08-28T00:42:02.082Z,1019.45
2022-08-28T00:44:02.336Z,1019.45
2022-08-28T00:46:02.312Z,1019.45
2022-08-28T00:48:02.494Z,1019.45
2022-08-28T00:50:02.604Z,1019.45
2022-08-28T00:52:02.488Z,1019.51
2022-08-28T00:54:08.028Z,1019.51
2022-08-28T00:56:09.463Z,1019.43
2022-08-28T00:58:01.976Z,1019.43
2022-08-28T01:00:11.367Z,1019.49
2022-08-28T01:02:02.600Z,1019.49
2022-08-28T01:04:02.031Z,1019.63
2022-08-28T01:06:01.753Z,1019.63
2022-08-28T01:08:01.933Z,1019.55
2022-08-28T01:10:02.367Z,1019.55
2022-08-28T01:12:01.992Z,1019.56
2022-08-28T01:14:03.507Z,1019.56
2022-08-28T01:16:02.132Z,1019.51
2022-08-28T01:18:08.746Z,1019.51
2022-08-28T01:20:02.461Z,1019.48
2022-08-28T01:22:02.500Z,1019.48
2022-08-28T01:24:01.972Z,1019.59
2022-08-28T01:26:10.963Z,1019.42
2022-08-28T01:28:02.213Z,1019.42
2022-08-28T01:30:02.077Z,1019.4
2022-08-28T01:32:01.630Z,1019.4
2022-08-28T01:34:02.542Z,1019.37
2022-08-28T01:36:02.226Z,1019.37
2022-08-28T01:38:01.601Z,1019.44
2022-08-28T01:40:02.043Z,1019.44
2022-08-28T01:42:01.812Z,1019.38
2022-08-28T01:44:01.671Z,1019.38
2022-08-28T01:46:02.020Z,1019.45
2022-08-28T01:48:01.657Z,1019.45
2022-08-28T01:50:02.321Z,1019.39
2022-08-28T01:52:03.642Z,1019.39
2022-08-28T01:54:02.569Z,1019.36
2022-08-28T01:56:04.941Z,1019.36
2022-08-28T01:58:02.571Z,1019.4
2022-08-28T02:00:05.819Z,1019.4
2022-08-28T02:02:02.306Z,1019.45
2022-08-28T02:04:02.685Z,1019.45
2022-08-28T02:06:01.841Z,1019.45
2022-08-28T02:08:02.528Z,1019.45
2022-08-28T02:10:02.012Z,1019.51
2022-08-28T02:12:02.384Z,1019.51
2022-08-28T02:14:01.807Z,1019.46
2022-08-28T02:16:02.590Z,1019.46
2022-08-28T02:18:01.888Z,1019.44
2022-08-28T02:20:01.697Z,1019.44
2022-08-28T02:22:01.664Z,1019.64
2022-08-28T02:24:01.692Z,1019.64
2022-08-28T02:26:01.614Z,1019.55
2022-08-28T02:28:02.381Z,1019.55
2022-08-28T02:30:02.554Z,1019.64
2022-08-28T02:32:02.073Z,1019.64
2022-08-28T02:34:01.640Z,1019.63
2022-08-28T02:36:01.982Z,1019.63
2022-08-28T02:38:02.139Z,1019.55
2022-08-28T02:40:02.017Z,1019.55
2022-08-28T02:42:01.822Z,1019.63
2022-08-28T02:44:02.161Z,1019.63
2022-08-28T02:46:02.630Z,1019.53
2022-08-28T02:48:01.608Z,1019.53
2022-08-28T02:50:02.418Z,1019.66
2022-08-28T02:52:01.902Z,1019.66
2022-08-28T02:54:02.372Z,1019.58
2022-08-28T02:56:01.653Z,1019.58
2022-08-28T02:58:02.297Z,1019.64
2022-08-28T03:00:07.072Z,1019.64
2022-08-28T03:02:02.112Z,1019.67
2022-08-28T03:04:02.234Z,1019.67
2022-08-28T03:06:02.476Z,1019.69
2022-08-28T03:08:02.556Z,1019.69
2022-08-28T03:10:02.525Z,1019.68
2022-08-28T03:12:01.801Z,1019.68
2022-08-28T03:14:01.727Z,1019.67
2022-08-28T03:16:02.149Z,1019.67
2022-08-28T03:18:09.483Z,1019.65
2022-08-28T03:20:02.007Z,1019.65
2022-08-28T03:22:02.291Z,1019.68
2022-08-28T03:24:02.539Z,1019.68
2022-08-28T03:26:02.512Z,1019.76
2022-08-28T03:28:02.503Z,1019.76
2022-08-28T03:30:02.481Z,1019.72
2022-08-28T03:32:02.444Z,1019.72
2022-08-28T03:34:01.668Z,1019.74
2022-08-28T03:36:05.087Z,1019.74
2022-08-28T03:38:01.572Z,1019.87
2022-08-28T03:40:02.010Z,1019.87
2022-08-28T03:42:02.395Z,1019.74
2022-08-28T03:44:01.603Z,1019.74
2022-08-28T03:46:02.556Z,1019.76
2022-08-28T03:48:02.395Z,1019.76
2022-08-28T03:50:01.905Z,1019.84
2022-08-28T03:52:01.983Z,1019.84
2022-08-28T03:54:02.011Z,1019.78
2022-08-28T03:56:02.282Z,1019.78
2022-08-28T03:58:02.047Z,1019.89
2022-08-28T04:00:05.939Z,1019.89
2022-08-28T04:02:01.929Z,1019.83
2022-08-28T04:04:02.377Z,1019.83
2022-08-28T04:06:02.029Z,1019.89
2022-08-28T04:08:01.752Z,1019.89
2022-08-28T04:10:01.768Z,1019.97
2022-08-28T04:12:02.287Z,1019.97
2022-08-28T04:14:01.684Z,1019.93
2022-08-28T04:16:06.570Z,1019.93
2022-08-28T04:18:01.669Z,1020.02
2022-08-28T04:20:01.964Z,1020.02
2022-08-28T04:22:02.096Z,1019.98
2022-08-28T04:24:03.563Z,1019.98
2022-08-28T04:26:01.638Z,1019.94
2022-08-28T04:28:01.951Z,1019.94
2022-08-28T04:30:02.581Z,1019.99
2022-08-28T04:32:02.150Z,1019.99
2022-08-28T04:34:02.437Z,1019.99
2022-08-28T04:36:02.155Z,1019.99
2022-08-28T04:38:05.811Z,1019.98
2022-08-28T04:40:01.905Z,1019.98
2022-08-28T04:42:02.163Z,1020.05
2022-08-28T04:44:02.120Z,1020.05
2022-08-28T04:46:02.203Z,1020.12
2022-08-28T04:48:05.766Z,1020.05
2022-08-28T04:50:01.859Z,1020.05
2022-08-28T04:52:01.842Z,1020.14
2022-08-28T04:54:01.876Z,1020.14
2022-08-28T04:56:02.131Z,1020.08
2022-08-28T04:58:02.477Z,1020.08
2022-08-28T05:00:05.554Z,1020.11
2022-08-28T05:02:01.782Z,1020.11
2022-08-28T05:04:01.647Z,1020.29
2022-08-28T05:06:01.974Z,1020.29
2022-08-28T05:08:02.226Z,1020.16
2022-08-28T05:10:03.361Z,1020.16
2022-08-28T05:12:01.832Z,1020.24
2022-08-28T05:14:02.091Z,1020.24
2022-08-28T05:16:01.898Z,1020.36
2022-08-28T05:18:02.301Z,1020.36
2022-08-28T05:20:02.590Z,1020.16
2022-08-28T05:22:02.418Z,1020.16
2022-08-28T05:24:02.247Z,1020.32
2022-08-28T05:26:02.087Z,1020.32
2022-08-28T05:28:02.541Z,1020.29
2022-08-28T05:30:02.545Z,1020.29
2022-08-28T05:32:02.454Z,1020.26
2022-08-28T05:34:01.645Z,1020.26
2022-08-28T05:36:01.896Z,1020.22
2022-08-28T05:38:02.329Z,1020.22
2022-08-28T05:40:02.726Z,1020.35
2022-08-28T05:42:02.129Z,1020.35
2022-08-28T05:44:02.532Z,1020.29
2022-08-28T05:46:02.354Z,1020.29
2022-08-28T05:48:02.524Z,1020.31
2022-08-28T05:50:01.914Z,1020.31
2022-08-28T05:52:02.397Z,1020.36
2022-08-28T05:54:01.925Z,1020.36
2022-08-28T05:56:01.565Z,1020.44
2022-08-28T05:58:02.378Z,1020.44
2022-08-28T06:00:05.611Z,1020.48
2022-08-28T06:02:04.863Z,1020.48
2022-08-28T06:04:02.481Z,1020.42
2022-08-28T06:06:02.043Z,1020.42
2022-08-28T06:08:02.380Z,1020.42
2022-08-28T06:10:02.259Z,1020.42
2022-08-28T06:12:02.374Z,1020.44
2022-08-28T06:14:02.863Z,1020.44
2022-08-28T06:16:01.828Z,1020.63
2022-08-28T06:18:01.768Z,1020.63
2022-08-28T06:20:02.572Z,1020.52
2022-08-28T06:22:07.797Z,1020.52
2022-08-28T06:24:01.573Z,1020.48
2022-08-28T06:26:02.291Z,1020.48
2022-08-28T06:28:01.888Z,1020.47
2022-08-28T06:30:02.283Z,1020.47
2022-08-28T06:32:02.668Z,1020.49
2022-08-28T06:34:02.177Z,1020.49
2022-08-28T06:36:02.528Z,1020.63
2022-08-28T06:38:01.630Z,1020.63
2022-08-28T06:40:02.697Z,1020.6
2022-08-28T06:42:01.804Z,1020.6
2022-08-28T06:44:01.790Z,1020.73
2022-08-28T06:46:02.224Z,1020.73
2022-08-28T06:48:02.496Z,1020.62
2022-08-28T06:50:01.899Z,1020.62
2022-08-28T06:52:02.047Z,1020.74
2022-08-28T06:54:01.573Z,1020.74
2022-08-28T06:56:01.897Z,1020.61
2022-08-28T06:58:01.605Z,1020.61
2022-08-28T07:00:05.263Z,1020.59
2022-08-28T07:02:02.600Z,1020.59
2022-08-28T07:04:02.266Z,1020.61
2022-08-28T07:06:02.063Z,1020.61
2022-08-28T07:08:02.053Z,1020.78
2022-08-28T07:10:02.485Z,1020.78
2022-08-28T07:12:02.256Z,1020.65
2022-08-28T07:14:02.265Z,1020.65
2022-08-28T07:16:02.159Z,1020.77
2022-08-28T07:18:02.324Z,1020.77
2022-08-28T07:20:01.936Z,1020.72
2022-08-28T07:22:02.292Z,1020.72
2022-08-28T07:24:01.684Z,1020.68
2022-08-28T07:26:02.020Z,1020.68
2022-08-28T07:28:02.107Z,1020.83
2022-08-28T07:30:02.608Z,1020.83
2022-08-28T07:32:02.061Z,1020.83
2022-08-28T07:34:01.567Z,1020.83
2022-08-28T07:36:02.183Z,1020.92
2022-08-28T07:38:02.447Z,1020.92
2022-08-28T07:40:02.208Z,1020.88
2022-08-28T07:42:01.852Z,1020.88
2022-08-28T07:44:01.754Z,1020.91
2022-08-28T07:46:02.315Z,1020.91
2022-08-28T07:48:01.867Z,1020.93
2022-08-28T07:50:01.807Z,1020.93
2022-08-28T07:52:01.902Z,1020.95
2022-08-28T07:54:02.225Z,1020.95
2022-08-28T07:56:02.564Z,1020.93
2022-08-28T07:58:02.399Z,1020.93
2022-08-28T08:00:05.565Z,1020.85
2022-08-28T08:02:01.555Z,1020.85
2022-08-28T08:04:02.614Z,1021.1
2022-08-28T08:06:01.692Z,1021.1
2022-08-28T08:08:02.548Z,1020.91
2022-08-28T08:10:02.958Z,1020.91
2022-08-28T08:12:02.264Z,1020.9
2022-08-28T08:14:01.928Z,1021.08
2022-08-28T08:16:01.961Z,1021.08
2022-08-28T08:18:02.092Z,1020.95
2022-08-28T08:20:02.527Z,1020.95
2022-08-28T08:22:01.782Z,1021.1
2022-08-28T08:24:01.933Z,1021.1
2022-08-28T08:26:01.992Z,1021.1
2022-08-28T08:28:02.186Z,1021.1
2022-08-28T08:30:02.438Z,1021.19
2022-08-28T08:32:01.931Z,1021.19
2022-08-28T08:34:01.712Z,1021.2
2022-08-28T08:36:02.048Z,1021.2
2022-08-28T08:38:03.286Z,1021.27
2022-08-28T08:40:04.058Z,1021.27
2022-08-28T08:42:02.162Z,1021.25
2022-08-28T08:44:01.702Z,1021.25
2022-08-28T08:46:02.210Z,1021.15
2022-08-28T08:48:02.524Z,1021.15
2022-08-28T08:50:02.148Z,1021.2
2022-08-28T08:52:01.576Z,1021.2
2022-08-28T08:54:02.110Z,1021.17
2022-08-28T08:56:02.484Z,1021.17
2022-08-28T08:58:01.824Z,1021.2
2022-08-28T09:00:15.893Z,1021.2
2022-08-28T09:02:02.287Z,1021.2
2022-08-28T09:04:02.245Z,1021.2
2022-08-28T09:06:01.939Z,1021.33
2022-08-28T09:08:02.331Z,1021.33
2022-08-28T09:10:02.264Z,1021.17
2022-08-28T09:12:02.436Z,1021.17
2022-08-28T09:14:01.609Z,1021.2
2022-08-28T09:16:02.665Z,1021.2
2022-08-28T09:18:02.344Z,1021.04
2022-08-28T09:20:02.545Z,1021.04
2022-08-28T09:22:02.163Z,1021.18
2022-08-28T09:24:10.870Z,1021.18
2022-08-28T09:26:02.730Z,1021.12
2022-08-28T09:28:01.648Z,1021.12
2022-08-28T09:30:08.608Z,1021.15
2022-08-28T09:32:02.190Z,1021.15
2022-08-28T09:34:01.833Z,1021.16
2022-08-28T09:36:01.807Z,1021.16
2022-08-28T09:38:01.710Z,1021.17
2022-08-28T09:40:02.246Z,1021.17
2022-08-28T09:42:02.357Z,1021.11
2022-08-28T09:44:01.891Z,1021.11
2022-08-28T09:46:02.660Z,1021.11
2022-08-28T09:48:01.745Z,1021.11
2022-08-28T09:50:01.623Z,1020.97
2022-08-28T09:52:02.369Z,1020.97
2022-08-28T09:54:01.863Z,1021.16
2022-08-28T09:56:01.799Z,1021.16
2022-08-28T09:58:02.390Z,1021.02
2022-08-28T10:00:05.482Z,1021.02
2022-08-28T10:02:01.731Z,1021
2022-08-28T10:04:02.393Z,1021
2022-08-28T10:06:02.035Z,1021.05
2022-08-28T10:08:01.797Z,1021.05
2022-08-28T10:10:06.747Z,1021.17
2022-08-28T10:12:01.921Z,1021.17
2022-08-28T10:14:02.171Z,1021.12
2022-08-28T10:16:02.499Z,1021.12
2022-08-28T10:18:02.234Z,1021.13
2022-08-28T10:20:02.577Z,1021.13
2022-08-28T10:22:05.191Z,1021.01
2022-08-28T10:24:02.178Z,1021.01
2022-08-28T10:26:01.878Z,1021.08
2022-08-28T10:28:02.358Z,1021.08
2022-08-28T10:30:13.127Z,1021.08
2022-08-28T10:32:02.156Z,1021.08
2022-08-28T10:34:01.859Z,1021.1
2022-08-28T10:36:02.314Z,1021.1
2022-08-28T10:38:02.366Z,1021.1
2022-08-28T10:40:04.922Z,1021.1
2022-08-28T10:42:01.728Z,1021.1
2022-08-28T10:44:02.074Z,1021.1
2022-08-28T10:46:01.796Z,1020.99
2022-08-28T10:48:01.925Z,1020.99
2022-08-28T10:50:01.791Z,1021.13
2022-08-28T10:52:04.788Z,1021.13
2022-08-28T10:54:02.248Z,1021.09
2022-08-28T10:56:01.819Z,1021.09
2022-08-28T10:58:01.765Z,1021.07
2022-08-28T11:00:05.737Z,1021.07
2022-08-28T11:02:02.311Z,1021.2
2022-08-28T11:04:01.968Z,1021.2
2022-08-28T11:06:01.968Z,1021.14
2022-08-28T11:08:01.982Z,1021.14
2022-08-28T11:10:02.266Z,1021.17
2022-08-28T11:12:02.807Z,1021.17
2022-08-28T11:14:02.515Z,1021.16
2022-08-28T11:16:02.094Z,1021.16
2022-08-28T11:18:01.993Z,1021.14
2022-08-28T11:20:01.886Z,1021.14
2022-08-28T11:22:01.977Z,1021.33
2022-08-28T11:24:02.049Z,1021.33
2022-08-28T11:26:02.539Z,1021.27
2022-08-28T11:28:01.808Z,1021.27
2022-08-28T11:30:01.856Z,1021.28
2022-08-28T11:32:01.652Z,1021.28
2022-08-28T11:34:01.748Z,1021.25
2022-08-28T11:36:01.617Z,1021.25
2022-08-28T11:38:01.971Z,1021.18
2022-08-28T11:40:01.936Z,1021.18
2022-08-28T11:42:02.314Z,1021.23
2022-08-28T11:44:02.151Z,1021.21
2022-08-28T11:46:02.114Z,1021.21
2022-08-28T11:48:01.646Z,1021.2
2022-08-28T11:50:02.344Z,1021.2
2022-08-28T11:52:02.332Z,1021.2
2022-08-28T11:54:01.924Z,1021.2
2022-08-28T11:56:02.197Z,1021.18
2022-08-28T12:00:05.281Z,1021.19
2022-08-28T12:02:02.528Z,1021.19
2022-08-28T12:04:08.706Z,1021.21
2022-08-28T12:06:02.071Z,1021.21
2022-08-28T12:08:01.872Z,1021.22
2022-08-28T12:10:05.557Z,1021.22
2022-08-28T12:12:01.613Z,1021.25
2022-08-28T12:14:01.944Z,1021.25
2022-08-28T12:16:02.530Z,1021.3
2022-08-28T12:18:01.607Z,1021.3
2022-08-28T12:20:01.748Z,1021.31
2022-08-28T12:22:02.267Z,1021.31
2022-08-28T12:24:10.018Z,1021.2
2022-08-28T12:26:01.659Z,1021.2
2022-08-28T12:28:02.149Z,1021.34
2022-08-28T12:30:02.538Z,1021.34
2022-08-28T12:32:01.746Z,1021.32
2022-08-28T12:34:01.661Z,1021.32
2022-08-28T12:36:01.561Z,1021.28
2022-08-28T12:38:01.732Z,1021.28
2022-08-28T12:40:02.174Z,1021.19
2022-08-28T12:42:01.624Z,1021.19
2022-08-28T12:44:01.793Z,1021.09
2022-08-28T12:46:02.683Z,1021.09
2022-08-28T12:48:01.908Z,1021.24
2022-08-28T12:50:02.378Z,1021.24
2022-08-28T12:52:01.648Z,1021.28
2022-08-28T12:54:01.811Z,1021.28
2022-08-28T12:56:02.145Z,1021.22
2022-08-28T12:58:01.943Z,1021.22
2022-08-28T13:00:05.171Z,1021.25
2022-08-28T13:02:02.614Z,1021.25
2022-08-28T13:04:01.868Z,1021.23
2022-08-28T13:06:02.306Z,1021.23
2022-08-28T13:08:02.321Z,1021.2
2022-08-28T13:10:01.895Z,1021.2
2022-08-28T13:12:01.679Z,1021.1
2022-08-28T13:14:02.048Z,1021.1
2022-08-28T13:16:02.529Z,1021.18
2022-08-28T13:18:02.025Z,1021.18
2022-08-28T13:20:02.552Z,1021.06
2022-08-28T13:22:02.379Z,1021.06
2022-08-28T13:24:01.941Z,1021.1
2022-08-28T13:26:02.394Z,1021.1
2022-08-28T13:28:02.443Z,1021.07
2022-08-28T13:30:02.616Z,1021.07
2022-08-28T13:32:01.822Z,1021.18
2022-08-28T13:34:02.160Z,1021.18
2022-08-28T13:36:02.122Z,1021.15
2022-08-28T13:38:01.886Z,1021.15
2022-08-28T13:40:19.786Z,1021.11
2022-08-28T13:42:02.556Z,1021.11
2022-08-28T13:44:01.938Z,1021.12
2022-08-28T13:46:02.462Z,1021.12
2022-08-28T13:48:01.615Z,1021.14
2022-08-28T13:50:01.805Z,1021.14
2022-08-28T13:52:03.540Z,1021.04
2022-08-28T13:54:02.117Z,1021.04
2022-08-28T13:56:01.962Z,1021.1
2022-08-28T13:58:01.798Z,1021.1
2022-08-28T14:00:04.997Z,1021.11
2022-08-28T14:02:02.266Z,1021.11
2022-08-28T14:04:01.726Z,1021.1
2022-08-28T14:06:02.402Z,1021.1
2022-08-28T14:08:02.360Z,1021.05
2022-08-28T14:10:02.590Z,1021.05
2022-08-28T14:12:02.175Z,1021
2022-08-28T14:14:01.995Z,1021
2022-08-28T14:16:02.029Z,1021.02
2022-08-28T14:18:01.821Z,1021.02
2022-08-28T14:20:02.333Z,1021.08
2022-08-28T14:22:02.269Z,1021.08
2022-08-28T14:24:02.451Z,1020.99
2022-08-28T14:26:01.748Z,1020.99
2022-08-28T14:28:02.293Z,1021.06
2022-08-28T14:30:02.025Z,1021.06
2022-08-28T14:32:02.179Z,1021.04
2022-08-28T14:34:02.708Z,1021.04
2022-08-28T14:36:02.011Z,1021.04
2022-08-28T14:38:01.792Z,1021.04
2022-08-28T14:40:02.242Z,1020.94
2022-08-28T14:42:01.847Z,1020.94
2022-08-28T14:44:01.976Z,1021.12
2022-08-28T14:46:02.427Z,1021.12
2022-08-28T14:48:02.011Z,1021.01
2022-08-28T14:50:02.604Z,1021.01
2022-08-28T14:52:02.115Z,1020.99
2022-08-28T14:54:02.493Z,1020.99
2022-08-28T14:56:01.882Z,1021.07
2022-08-28T14:58:01.914Z,1021.07
2022-08-28T15:00:01.856Z,1021.06
2022-08-28T15:02:02.484Z,1021.07
2022-08-28T15:04:01.961Z,1021.07
2022-08-28T15:06:02.269Z,1021.08
2022-08-28T15:08:01.678Z,1021.08
2022-08-28T15:10:02.328Z,1020.99
2022-08-28T15:12:02.437Z,1020.99
2022-08-28T15:14:02.576Z,1021.07
2022-08-28T15:16:02.164Z,1021.07
2022-08-28T15:18:02.383Z,1020.99
2022-08-28T15:20:02.040Z,1020.99
2022-08-28T15:22:01.903Z,1021.11
2022-08-28T15:24:01.959Z,1021.11
2022-08-28T15:26:01.563Z,1020.99
2022-08-28T15:28:02.368Z,1020.99
2022-08-28T15:30:01.980Z,1020.92
2022-08-28T15:32:02.275Z,1020.92
2022-08-28T15:34:01.732Z,1020.83
2022-08-28T15:36:02.193Z,1020.83
2022-08-28T15:38:02.321Z,1021.02
2022-08-28T15:40:02.681Z,1021.02
2022-08-28T15:42:01.833Z,1020.85
2022-08-28T15:44:01.718Z,1020.85
2022-08-28T15:46:02.500Z,1020.84
2022-08-28T15:48:01.676Z,1020.84
2022-08-28T15:50:04.879Z,1021
2022-08-28T15:52:04.168Z,1021
2022-08-28T15:54:01.892Z,1020.92
2022-08-28T15:56:01.839Z,1020.92
2022-08-28T15:58:02.154Z,1020.89
2022-08-28T16:00:10.668Z,1020.89
2022-08-28T16:02:01.911Z,1020.9
2022-08-28T16:04:02.091Z,1020.9
2022-08-28T16:06:01.812Z,1020.77
2022-08-28T16:08:02.010Z,1020.77
2022-08-28T16:10:02.423Z,1020.94
2022-08-28T16:12:02.520Z,1020.94
2022-08-28T16:14:01.607Z,1020.93
2022-08-28T16:16:01.777Z,1020.93
2022-08-28T16:18:02.445Z,1020.92
2022-08-28T16:20:01.919Z,1020.92
2022-08-28T16:22:01.953Z,1020.83
2022-08-28T16:24:02.443Z,1020.83
2022-08-28T16:26:02.453Z,1020.91
2022-08-28T16:28:02.192Z,1020.91
2022-08-28T16:30:02.629Z,1020.96
2022-08-28T16:32:02.015Z,1020.96
2022-08-28T16:34:02.099Z,1020.93
2022-08-28T16:36:02.311Z,1020.93
2022-08-28T16:38:01.639Z,1021.08
2022-08-28T16:40:02.219Z,1021.08
2022-08-28T16:42:01.684Z,1020.99
2022-08-28T16:44:01.889Z,1020.99
2022-08-28T16:46:02.062Z,1020.86
2022-08-28T16:48:02.245Z,1020.86
2022-08-28T16:50:01.807Z,1021.01
2022-08-28T16:52:02.409Z,1021.01
2022-08-28T16:54:01.871Z,1021.03
2022-08-28T16:56:02.251Z,1021.03
2022-08-28T16:58:01.919Z,1021.07
2022-08-28T17:00:05.968Z,1021.07
2022-08-28T17:02:02.199Z,1020.87
2022-08-28T17:04:02.171Z,1020.87
2022-08-28T17:06:02.460Z,1020.95
2022-08-28T17:08:01.721Z,1020.95
2022-08-28T17:10:02.035Z,1020.93
2022-08-28T17:12:04.139Z,1020.93
2022-08-28T17:14:02.187Z,1020.97
2022-08-28T17:16:02.372Z,1020.97
2022-08-28T17:18:02.365Z,1020.89
2022-08-28T17:20:02.694Z,1020.89
2022-08-28T17:22:02.277Z,1020.94
2022-08-28T17:24:02.464Z,1020.94
2022-08-28T17:26:02.669Z,1021.04
2022-08-28T17:28:02.431Z,1021.04
2022-08-28T17:30:02.574Z,1020.99
2022-08-28T17:32:02.110Z,1020.99
2022-08-28T17:34:02.295Z,1020.92
2022-08-28T17:36:02.442Z,1020.92
2022-08-28T17:38:02.337Z,1020.91
2022-08-28T17:40:02.689Z,1020.91
2022-08-28T17:42:01.761Z,1020.92
2022-08-28T17:44:02.000Z,1020.92
2022-08-28T17:46:02.129Z,1020.77
2022-08-28T17:48:02.224Z,1020.77
2022-08-28T17:50:02.099Z,1020.79
2022-08-28T17:52:02.039Z,1020.79
2022-08-28T17:54:02.367Z,1020.78
2022-08-28T17:56:01.962Z,1020.78
2022-08-28T17:58:02.089Z,1020.84
2022-08-28T18:00:05.945Z,1020.84
2022-08-28T18:02:02.548Z,1020.87
2022-08-28T18:04:02.151Z,1020.87
2022-08-28T18:06:01.629Z,1020.84
2022-08-28T18:08:02.067Z,1020.84
2022-08-28T18:10:01.955Z,1020.85
2022-08-28T18:12:02.202Z,1020.85
2022-08-28T18:14:01.897Z,1020.92
2022-08-28T18:16:02.032Z,1020.92
2022-08-28T18:18:02.215Z,1020.88
2022-08-28T18:20:01.739Z,1020.88
2022-08-28T18:22:01.809Z,1020.82
2022-08-28T18:24:02.139Z,1020.82
2022-08-28T18:26:01.802Z,1020.92
2022-08-28T18:28:02.125Z,1020.86
2022-08-28T18:30:02.451Z,1020.86
2022-08-28T18:32:01.998Z,1020.85
2022-08-28T18:34:02.172Z,1020.85
2022-08-28T18:36:01.901Z,1020.89
2022-08-28T18:38:02.142Z,1020.89
2022-08-28T18:40:02.284Z,1021.05
2022-08-28T18:42:01.678Z,1021.05
2022-08-28T18:44:05.060Z,1021.04
2022-08-28T18:46:02.101Z,1021.04
2022-08-28T18:48:02.128Z,1020.92
2022-08-28T18:50:05.468Z,1020.92
2022-08-28T18:52:01.849Z,1021.03
2022-08-28T18:54:02.391Z,1021.03
2022-08-28T18:56:04.748Z,1021.05
2022-08-28T18:58:01.573Z,1021.05
2022-08-28T19:00:07.344Z,1020.92
2022-08-28T19:02:02.741Z,1020.92
2022-08-28T19:04:01.980Z,1020.96
2022-08-28T19:06:02.320Z,1020.96
2022-08-28T19:08:02.391Z,1021.17
2022-08-28T19:10:01.846Z,1021.17
2022-08-28T19:12:01.728Z,1021.09
2022-08-28T19:14:04.325Z,1021.09
2022-08-28T19:16:02.408Z,1021.19
2022-08-28T19:18:01.975Z,1021.19
2022-08-28T19:20:02.118Z,1021.23
2022-08-28T19:22:01.926Z,1021.23
2022-08-28T19:24:01.833Z,1021.27
2022-08-28T19:26:02.133Z,1021.27
2022-08-28T19:28:02.341Z,1021.16
2022-08-28T19:30:01.865Z,1021.16
2022-08-28T19:32:02.063Z,1021.27
2022-08-28T19:34:02.389Z,1021.27
2022-08-28T19:36:02.437Z,1021.18
2022-08-28T19:38:02.171Z,1021.18
2022-08-28T19:40:01.893Z,1021.31
2022-08-28T19:42:01.781Z,1021.31
2022-08-28T19:44:01.675Z,1021.27
2022-08-28T19:46:02.319Z,1021.27
2022-08-28T19:48:02.326Z,1021.3
2022-08-28T19:50:02.459Z,1021.3
2022-08-28T19:52:01.927Z,1021.28
2022-08-28T19:54:02.560Z,1021.28
2022-08-28T19:56:02.074Z,1021.44
2022-08-28T19:58:01.938Z,1021.44
2022-08-28T20:00:05.024Z,1021.39
2022-08-28T20:02:02.653Z,1021.39
2022-08-28T20:04:02.308Z,1021.41
2022-08-28T20:06:01.668Z,1021.41
2022-08-28T20:08:02.190Z,1021.36
2022-08-28T20:10:02.558Z,1021.36
2022-08-28T20:12:01.846Z,1021.6
2022-08-28T20:14:01.884Z,1021.6
2022-08-28T20:16:02.607Z,1021.67
2022-08-28T20:18:01.781Z,1021.67
2022-08-28T20:20:03.651Z,1021.74
2022-08-28T20:22:02.433Z,1021.74
2022-08-28T20:24:03.225Z,1021.62
2022-08-28T20:26:02.316Z,1021.62
2022-08-28T20:28:02.221Z,1021.57
2022-08-28T20:30:11.542Z,1021.57
2022-08-28T20:32:02.883Z,1021.64
2022-08-28T20:34:02.214Z,1021.64
2022-08-28T20:36:01.594Z,1021.59
2022-08-28T20:38:02.116Z,1021.59
2022-08-28T20:40:09.822Z,1021.63
2022-08-28T20:42:02.532Z,1021.63
2022-08-28T20:44:01.844Z,1021.68
2022-08-28T20:46:05.266Z,1021.68
2022-08-28T20:48:01.945Z,1021.69
2022-08-28T20:50:01.829Z,1021.69
2022-08-28T20:52:02.313Z,1021.68
2022-08-28T20:54:02.123Z,1021.68
2022-08-28T20:56:01.830Z,1021.67
2022-08-28T20:58:01.659Z,1021.67
2022-08-28T21:00:06.186Z,1021.85
2022-08-28T21:02:02.198Z,1021.85
2022-08-28T21:04:01.978Z,1021.84
2022-08-28T21:06:02.244Z,1021.84
2022-08-28T21:08:01.870Z,1021.84
2022-08-28T21:10:08.094Z,1021.84
2022-08-28T21:12:02.242Z,1021.94
2022-08-28T21:14:02.080Z,1021.94
2022-08-28T21:16:04.477Z,1021.92
2022-08-28T21:18:02.629Z,1021.92
2022-08-28T21:20:04.602Z,1021.85
2022-08-28T21:22:02.236Z,1021.85
2022-08-28T21:24:01.861Z,1021.92
2022-08-28T21:26:02.371Z,1021.92
2022-08-28T21:28:14.273Z,1021.88
2022-08-28T21:30:02.034Z,1021.88
2022-08-28T21:32:01.854Z,1021.91
2022-08-28T21:34:02.141Z,1021.91
2022-08-28T21:36:01.838Z,1021.85
2022-08-28T21:38:02.049Z,1021.85
2022-08-28T21:40:02.740Z,1021.92
2022-08-28T21:42:02.136Z,1021.92
2022-08-28T21:44:01.616Z,1021.98
2022-08-28T21:46:02.528Z,1021.98
2022-08-28T21:48:02.542Z,1021.88
2022-08-28T21:50:01.827Z,1021.88
2022-08-28T21:52:02.159Z,1022.02
2022-08-28T21:54:02.137Z,1022
2022-08-28T21:56:02.585Z,1022
2022-08-28T21:58:02.438Z,1021.97
2022-08-28T22:00:02.233Z,1021.97
2022-08-28T22:02:02.528Z,1022.03
2022-08-28T22:04:02.259Z,1022.03
2022-08-28T22:06:02.583Z,1022
2022-08-28T22:08:01.863Z,1022
2022-08-28T22:10:02.689Z,1022.02
2022-08-28T22:12:02.094Z,1022.02
2022-08-28T22:14:02.392Z,1021.95
2022-08-28T22:16:02.236Z,1021.95
2022-08-28T22:18:02.205Z,1021.98
2022-08-28T22:20:01.775Z,1021.98
2022-08-28T22:22:01.710Z,1021.99
2022-08-28T22:24:02.064Z,1021.99
2022-08-28T22:26:01.647Z,1021.98
2022-08-28T22:28:02.469Z,1021.98
2022-08-28T22:30:01.871Z,1021.94
2022-08-28T22:32:01.842Z,1021.94
2022-08-28T22:34:02.445Z,1022.01
2022-08-28T22:36:02.154Z,1022.01
2022-08-28T22:38:01.671Z,1021.98
2022-08-28T22:40:13.487Z,1021.98
2022-08-28T22:42:02.155Z,1021.9
2022-08-28T22:44:02.383Z,1021.9
2022-08-28T22:46:02.059Z,1021.91
2022-08-28T22:48:02.346Z,1021.91
2022-08-28T22:50:01.647Z,1021.89
2022-08-28T22:52:02.127Z,1021.89
2022-08-28T22:54:02.481Z,1021.92
2022-08-28T22:56:02.514Z,1021.92
2022-08-28T22:58:01.802Z,1021.92
2022-08-28T23:00:04.800Z,1021.92
2022-08-28T23:02:01.776Z,1021.91
2022-08-28T23:04:02.495Z,1021.91
2022-08-28T23:06:01.977Z,1021.95
2022-08-28T23:08:01.811Z,1021.95
2022-08-28T23:10:01.858Z,1021.94
2022-08-28T23:12:02.070Z,1021.94
2022-08-28T23:14:02.360Z,1021.82
2022-08-28T23:16:01.811Z,1021.82
2022-08-28T23:18:02.323Z,1022
2022-08-28T23:20:03.375Z,1022
2022-08-28T23:22:02.454Z,1021.83
2022-08-28T23:24:02.472Z,1021.83
2022-08-28T23:26:01.644Z,1021.85
2022-08-28T23:28:06.764Z,1021.85
2022-08-28T23:30:02.496Z,1021.86
2022-08-28T23:32:02.401Z,1021.86
2022-08-28T23:34:02.596Z,1021.81
2022-08-28T23:36:01.589Z,1021.81
2022-08-28T23:38:03.532Z,1021.99
2022-08-28T23:40:01.738Z,1021.99
2022-08-28T23:42:02.287Z,1021.86
2022-08-28T23:44:09.295Z,1021.86
2022-08-28T23:46:02.819Z,1021.77
2022-08-28T23:48:02.527Z,1021.77
2022-08-28T23:50:02.861Z,1021.79
2022-08-28T23:52:01.591Z,1021.79
2022-08-28T23:54:01.939Z,1021.81
2022-08-28T23:56:02.184Z,1021.81
2022-08-28T23:58:02.501Z,1021.8
